createdAt,value
2023-12-07T00:02:09.573Z,-0.50
2023-12-07T00:04:38.811Z,-0.48
2023-12-07T00:07:09.538Z,-0.52
2023-12-07T00:09:38.687Z,-0.64
2023-12-07T00:12:08.875Z,-0.69
2023-12-07T00:14:37.954Z,-0.69
2023-12-07T00:17:07.027Z,-0.54
2023-12-07T00:19:36.399Z,-0.55
2023-12-07T00:22:06.278Z,-0.54
2023-12-07T00:24:35.739Z,-0.54
2023-12-07T00:27:06.653Z,-0.68
2023-12-07T00:29:36.016Z,-0.80
2023-12-07T00:32:06.258Z,-0.96
2023-12-07T00:34:35.608Z,-0.78
2023-12-07T00:37:05.427Z,-0.77
2023-12-07T00:39:38.386Z,-0.94
2023-12-07T00:42:07.576Z,-1.06
2023-12-07T00:44:41.046Z,-1.05
2023-12-07T00:47:10.173Z,-1.04
2023-12-07T00:49:41.856Z,-1.09
2023-12-07T00:52:11.153Z,-0.97
2023-12-07T00:54:42.187Z,-0.87
2023-12-07T00:57:11.323Z,-1.05
2023-12-07T00:59:40.415Z,-0.85
2023-12-07T01:02:09.737Z,-0.85
2023-12-07T01:04:40.978Z,-1.01
2023-12-07T01:07:10.384Z,-1.06
2023-12-07T01:09:40.011Z,-1.09
2023-12-07T01:12:10.566Z,-1.12
2023-12-07T01:14:39.789Z,-0.97
2023-12-07T01:17:08.891Z,-0.89
2023-12-07T01:19:38.164Z,-0.89
2023-12-07T01:22:10.144Z,-0.92
2023-12-07T01:24:39.379Z,-0.96
2023-12-07T01:27:08.542Z,-1.05
2023-12-07T01:29:39.039Z,-0.91
2023-12-07T01:32:08.903Z,-0.98
2023-12-07T01:34:38.058Z,-1.01
2023-12-07T01:37:07.235Z,-1.18
2023-12-07T01:39:36.485Z,-1.22
2023-12-07T01:42:06.058Z,-0.93
2023-12-07T01:44:35.413Z,-1.09
2023-12-07T01:47:07.174Z,-1.02
2023-12-07T01:49:37.116Z,-1.04
2023-12-07T01:52:07.340Z,-1.04
2023-12-07T01:54:37.192Z,-1.07
2023-12-07T01:57:06.738Z,-1.09
2023-12-07T01:59:36.413Z,-0.96
2023-12-07T02:02:07.168Z,-1.07
2023-12-07T02:04:37.641Z,-1.34
2023-12-07T02:07:09.065Z,-1.39
2023-12-07T02:09:38.573Z,-1.15
2023-12-07T02:12:08.222Z,-1.22
2023-12-07T02:14:37.788Z,-1.35
2023-12-07T02:17:17.246Z,-1.43
2023-12-07T02:19:57.536Z,-1.25
2023-12-07T02:22:31.995Z,-1.58
2023-12-07T02:25:09.800Z,-1.53
2023-12-07T02:27:42.426Z,-1.45
2023-12-07T02:30:14.429Z,-1.72
2023-12-07T02:32:47.114Z,-1.72
2023-12-07T02:35:16.743Z,-1.86
2023-12-07T02:37:48.947Z,-1.78
2023-12-07T02:40:21.706Z,-1.91
2023-12-07T02:42:52.597Z,-1.83
2023-12-07T02:45:21.889Z,-1.97
2023-12-07T02:47:51.248Z,-1.81
2023-12-07T02:50:20.738Z,-1.91
2023-12-07T02:52:49.881Z,-1.81
2023-12-07T02:55:19.061Z,-2.00
2023-12-07T02:57:49.000Z,-1.89
2023-12-07T03:00:22.326Z,-1.82
2023-12-07T03:02:51.979Z,-1.97
2023-12-07T03:05:24.231Z,-1.95
2023-12-07T03:07:53.415Z,-2.14
2023-12-07T03:10:22.478Z,-1.78
2023-12-07T03:12:51.573Z,-1.95
2023-12-07T03:15:22.024Z,-1.94
2023-12-07T03:17:51.815Z,-1.97
2023-12-07T03:20:21.375Z,-2.09
2023-12-07T03:22:50.627Z,-2.08
2023-12-07T03:25:19.807Z,-2.14
2023-12-07T03:27:48.993Z,-2.18
2023-12-07T03:30:18.735Z,-2.05
2023-12-07T03:32:49.172Z,-2.09
2023-12-07T03:35:18.253Z,-2.07
2023-12-07T03:37:47.340Z,-2.02
2023-12-07T03:40:16.474Z,-2.03
2023-12-07T03:42:51.676Z,-2.10
2023-12-07T03:45:26.035Z,-1.98
2023-12-07T03:47:56.580Z,-2.00
2023-12-07T03:50:25.969Z,-2.05
2023-12-07T03:52:55.015Z,-2.06
2023-12-07T03:55:24.087Z,-1.99
2023-12-07T03:57:53.314Z,-2.12
2023-12-07T04:00:22.506Z,-2.01
2023-12-07T04:02:51.635Z,-2.17
2023-12-07T04:05:22.261Z,-1.95
2023-12-07T04:07:51.424Z,-2.01
2023-12-07T04:10:20.469Z,-2.12
2023-12-07T04:12:49.751Z,-2.25
2023-12-07T04:15:19.734Z,-2.31
2023-12-07T04:17:49.028Z,-2.30
2023-12-07T04:20:18.194Z,-2.24
2023-12-07T04:22:48.858Z,-2.47
2023-12-07T04:25:18.119Z,-2.47
2023-12-07T04:27:47.310Z,-2.32
2023-12-07T04:30:16.863Z,-2.30
2023-12-07T04:32:46.002Z,-2.47
2023-12-07T04:35:15.366Z,-2.69
2023-12-07T04:37:44.608Z,-2.56
2023-12-07T04:40:15.650Z,-2.58
2023-12-07T04:42:44.818Z,-2.68
2023-12-07T04:45:13.887Z,-2.58
2023-12-07T04:47:43.317Z,-2.54
2023-12-07T04:50:12.781Z,-2.80
2023-12-07T04:52:41.907Z,-2.79
2023-12-07T04:55:11.269Z,-3.10
2023-12-07T04:57:41.729Z,-2.94
2023-12-07T05:00:12.752Z,-2.82
2023-12-07T05:02:41.888Z,-2.98
2023-12-07T05:05:11.356Z,-3.03
2023-12-07T05:07:40.565Z,-3.12
2023-12-07T05:10:11.183Z,-3.21
2023-12-07T05:12:41.944Z,-3.47
2023-12-07T05:15:11.748Z,-3.45
2023-12-07T05:17:40.993Z,-3.38
2023-12-07T05:20:13.721Z,-3.30
2023-12-07T05:22:42.895Z,-3.41
2023-12-07T05:25:12.261Z,-3.37
2023-12-07T05:27:42.712Z,-3.42
2023-12-07T05:30:13.313Z,-3.64
2023-12-07T05:32:42.404Z,-3.66
2023-12-07T05:35:11.528Z,-3.73
2023-12-07T05:37:40.693Z,-3.65
2023-12-07T05:40:13.427Z,-3.64
2023-12-07T05:42:44.046Z,-3.64
2023-12-07T05:45:13.857Z,-3.79
2023-12-07T05:47:43.304Z,-4.05
2023-12-07T05:50:12.514Z,-4.02
2023-12-07T05:52:41.728Z,-4.02
2023-12-07T05:55:11.023Z,-4.14
2023-12-07T05:57:40.435Z,-4.02
2023-12-07T06:00:13.015Z,-3.97
2023-12-07T06:02:42.278Z,-3.86
2023-12-07T06:05:12.313Z,-3.87
2023-12-07T06:07:41.636Z,-3.98
2023-12-07T06:10:12.222Z,-3.95
2023-12-07T06:12:41.496Z,-4.06
2023-12-07T06:15:12.769Z,-4.01
2023-12-07T06:17:42.189Z,-4.11
2023-12-07T06:20:13.001Z,-4.11
2023-12-07T06:22:42.684Z,-4.11
2023-12-07T06:25:12.490Z,-4.16
2023-12-07T06:27:41.870Z,-4.13
2023-12-07T06:30:13.570Z,-4.04
2023-12-07T06:32:42.766Z,-4.08
2023-12-07T06:35:14.597Z,-4.05
2023-12-07T06:37:43.902Z,-3.93
2023-12-07T06:40:13.865Z,-4.04
2023-12-07T06:42:43.096Z,-4.26
2023-12-07T06:45:15.464Z,-4.10
2023-12-07T06:47:44.774Z,-3.93
2023-12-07T06:50:14.442Z,-4.08
2023-12-07T06:52:46.320Z,-4.06
2023-12-07T06:55:16.565Z,-4.08
2023-12-07T06:57:46.285Z,-4.26
2023-12-07T07:00:19.454Z,-3.99
2023-12-07T07:02:48.807Z,-4.15
2023-12-07T07:05:18.068Z,-3.95
2023-12-07T07:07:47.362Z,-4.01
2023-12-07T07:10:16.813Z,-3.94
2023-12-07T07:12:46.019Z,-3.98
2023-12-07T07:15:17.414Z,-4.12
2023-12-07T07:17:46.695Z,-4.03
2023-12-07T07:20:16.024Z,-3.91
2023-12-07T07:22:45.999Z,-3.79
2023-12-07T07:25:16.439Z,-3.91
2023-12-07T07:27:45.698Z,-3.93
2023-12-07T07:30:17.018Z,-3.89
2023-12-07T07:32:46.682Z,-3.84
2023-12-07T07:35:15.995Z,-3.86
2023-12-07T07:37:46.108Z,-4.01
2023-12-07T07:40:15.691Z,-3.90
2023-12-07T07:42:45.029Z,-3.78
2023-12-07T07:45:14.253Z,-3.61
2023-12-07T07:47:45.106Z,-3.35
2023-12-07T07:50:14.548Z,-3.36
2023-12-07T07:52:43.857Z,-3.29
2023-12-07T07:55:13.947Z,-3.37
2023-12-07T07:57:44.064Z,-3.27
2023-12-07T08:00:15.117Z,-3.24
2023-12-07T08:02:45.879Z,-2.96
2023-12-07T08:05:16.085Z,-3.05
2023-12-07T08:07:45.400Z,-2.91
2023-12-07T08:10:14.843Z,-2.89
2023-12-07T08:12:44.386Z,-2.67
2023-12-07T08:15:13.835Z,-2.54
2023-12-07T08:17:43.756Z,-2.46
2023-12-07T08:20:15.886Z,-2.31
2023-12-07T08:22:46.054Z,-2.26
2023-12-07T08:25:15.297Z,-2.23
2023-12-07T08:27:45.982Z,-2.18
2023-12-07T08:30:15.721Z,-2.16
2023-12-07T08:32:44.972Z,-2.09
2023-12-07T08:35:15.669Z,-1.90
2023-12-07T08:37:44.936Z,-1.85
2023-12-07T08:40:13.472Z,-1.59
2023-12-07T08:42:42.881Z,-1.44
2023-12-07T08:45:12.626Z,-1.43
2023-12-07T08:47:42.369Z,-1.40
2023-12-07T08:50:11.931Z,-1.25
2023-12-07T08:52:47.720Z,-0.98
2023-12-07T08:55:20.531Z,-0.96
2023-12-07T08:57:49.851Z,-0.76
2023-12-07T09:00:25.201Z,-0.67
2023-12-07T09:02:55.296Z,-0.62
2023-12-07T09:05:24.635Z,-0.40
2023-12-07T09:07:55.404Z,-0.36
2023-12-07T09:10:25.275Z,-0.27
2023-12-07T09:12:54.599Z,-0.23
2023-12-07T09:15:24.255Z,-0.01
2023-12-07T09:17:53.481Z,0.14
2023-12-07T09:20:22.803Z,0.36
2023-12-07T09:22:52.713Z,0.43
2023-12-07T09:25:23.496Z,0.53
2023-12-07T09:27:52.894Z,0.61
2023-12-07T09:30:22.307Z,0.85
2023-12-07T09:32:51.584Z,0.97
2023-12-07T09:35:21.697Z,1.04
2023-12-07T09:37:51.721Z,1.08
2023-12-07T09:40:23.833Z,1.13
2023-12-07T09:42:53.626Z,1.17
2023-12-07T09:45:25.127Z,1.25
2023-12-07T09:47:56.632Z,1.35
2023-12-07T09:50:29.013Z,1.47
2023-12-07T09:53:07.689Z,1.61
2023-12-07T09:55:39.750Z,1.82
2023-12-07T09:58:09.895Z,1.90
2023-12-07T10:00:39.935Z,1.98
2023-12-07T10:03:11.071Z,2.09
2023-12-07T10:06:01.227Z,2.12
2023-12-07T10:08:32.582Z,2.15
2023-12-07T10:11:09.074Z,2.29
2023-12-07T10:13:40.243Z,2.29
2023-12-07T10:16:12.685Z,2.43
2023-12-07T10:18:43.989Z,2.53
2023-12-07T10:21:15.552Z,2.69
2023-12-07T10:23:49.631Z,2.70
2023-12-07T10:26:22.283Z,2.72
2023-12-07T10:28:55.889Z,2.93
2023-12-07T10:31:26.078Z,2.98
2023-12-07T10:33:55.672Z,2.93
2023-12-07T10:36:25.668Z,2.96
2023-12-07T10:38:55.272Z,3.18
2023-12-07T10:41:27.268Z,3.17
2023-12-07T10:44:01.695Z,3.22
2023-12-07T10:46:34.991Z,3.19
2023-12-07T10:49:15.639Z,3.39
2023-12-07T10:52:00.915Z,3.62
2023-12-07T10:54:43.544Z,3.62
2023-12-07T10:57:16.250Z,3.60
2023-12-07T10:59:47.014Z,3.88
2023-12-07T11:02:20.678Z,3.96
2023-12-07T11:04:51.392Z,4.03
2023-12-07T11:07:24.715Z,4.11
2023-12-07T11:10:01.798Z,4.22
2023-12-07T11:12:40.809Z,4.53
2023-12-07T11:15:11.805Z,4.67
2023-12-07T11:17:55.416Z,4.94
2023-12-07T11:20:34.840Z,5.07
2023-12-07T11:23:08.094Z,5.21
2023-12-07T11:25:37.727Z,5.28
2023-12-07T11:28:10.940Z,5.53
2023-12-07T11:30:46.760Z,5.70
2023-12-07T11:33:19.225Z,5.92
2023-12-07T11:36:10.235Z,5.75
2023-12-07T11:38:41.626Z,5.94
2023-12-07T11:41:12.706Z,6.24
2023-12-07T11:43:47.793Z,6.04
2023-12-07T11:46:17.676Z,6.33
2023-12-07T11:48:50.858Z,6.24
2023-12-07T11:51:20.810Z,6.39
2023-12-07T11:53:51.500Z,6.11
2023-12-07T11:56:23.150Z,6.01
2023-12-07T11:58:54.228Z,6.13
2023-12-07T12:01:23.866Z,6.48
2023-12-07T12:03:53.172Z,6.09
2023-12-07T12:06:22.353Z,6.30
2023-12-07T12:08:51.582Z,6.34
2023-12-07T12:11:20.952Z,6.39
2023-12-07T12:13:51.473Z,6.67
2023-12-07T12:16:22.449Z,6.76
2023-12-07T12:18:51.872Z,7.38
2023-12-07T12:21:22.434Z,7.67
2023-12-07T12:23:52.580Z,7.44
2023-12-07T12:26:22.625Z,7.29
2023-12-07T12:28:53.896Z,7.48
2023-12-07T12:31:24.766Z,8.11
2023-12-07T12:33:54.036Z,9.54
2023-12-07T12:36:24.417Z,10.13
2023-12-07T12:38:53.645Z,10.69
2023-12-07T12:41:23.690Z,10.96
2023-12-07T12:43:54.420Z,10.61
2023-12-07T12:46:26.044Z,11.26
2023-12-07T12:48:57.901Z,11.03
2023-12-07T12:51:28.851Z,11.29
2023-12-07T12:53:59.430Z,10.83
2023-12-07T12:56:30.460Z,8.42
2023-12-07T12:59:04.109Z,8.41
2023-12-07T13:01:37.046Z,8.94
2023-12-07T13:04:06.990Z,9.63
2023-12-07T13:06:36.571Z,10.54
2023-12-07T13:09:05.838Z,10.80
2023-12-07T13:11:35.449Z,12.36
2023-12-07T13:14:09.493Z,12.94
2023-12-07T13:16:40.508Z,13.80
2023-12-07T13:19:09.818Z,15.34
2023-12-07T13:21:39.687Z,14.35
2023-12-07T13:24:13.949Z,13.47
2023-12-07T13:26:43.362Z,12.97
2023-12-07T13:29:18.262Z,14.27
2023-12-07T13:31:52.680Z,13.32
2023-12-07T13:34:24.079Z,13.18
2023-12-07T13:36:53.974Z,13.96
2023-12-07T13:39:30.224Z,13.71
2023-12-07T13:42:03.215Z,14.88
2023-12-07T13:44:34.864Z,15.04
2023-12-07T13:47:05.925Z,15.95
2023-12-07T13:49:35.475Z,15.23
2023-12-07T13:52:07.855Z,14.62
2023-12-07T13:57:11.361Z,13.53
2023-12-07T13:59:43.148Z,15.08
2023-12-07T14:02:13.761Z,13.84
2023-12-07T14:04:46.457Z,13.70
2023-12-07T14:07:18.363Z,14.10
2023-12-07T14:09:56.811Z,12.06
2023-12-07T14:12:30.536Z,12.11
2023-12-07T14:15:00.226Z,13.46
2023-12-07T14:17:47.055Z,11.79
2023-12-07T14:20:35.219Z,12.24
2023-12-07T14:23:13.143Z,11.67
2023-12-07T14:25:45.360Z,11.37
2023-12-07T14:28:15.194Z,10.46
2023-12-07T14:30:44.619Z,10.66
2023-12-07T14:33:20.112Z,11.12
2023-12-07T14:35:50.044Z,10.65
2023-12-07T14:38:19.577Z,9.80
2023-12-07T14:40:48.845Z,9.44
2023-12-07T14:43:19.077Z,7.88
2023-12-07T14:45:49.963Z,6.28
2023-12-07T14:48:32.090Z,5.15
2023-12-07T14:51:03.962Z,4.56
2023-12-07T14:53:33.528Z,4.01
2023-12-07T14:56:14.935Z,3.75
2023-12-07T14:58:46.819Z,3.41
2023-12-07T15:01:16.094Z,3.31
2023-12-07T15:03:54.723Z,2.95
2023-12-07T15:06:26.134Z,2.57
2023-12-07T15:08:57.837Z,2.22
2023-12-07T15:11:40.977Z,1.84
2023-12-07T15:14:15.539Z,1.37
2023-12-07T15:16:55.732Z,1.06
2023-12-07T15:19:26.982Z,0.75
2023-12-07T15:21:56.381Z,0.54
2023-12-07T15:24:34.305Z,0.24
2023-12-07T15:27:06.208Z,0.03
2023-12-07T15:29:36.884Z,0.02
2023-12-07T15:32:08.164Z,0.08
2023-12-07T15:34:42.086Z,0.07
2023-12-07T15:37:14.239Z,0.04
2023-12-07T15:39:45.551Z,-0.14
2023-12-07T15:42:14.841Z,0.09
2023-12-07T15:44:44.209Z,-0.15
2023-12-07T15:47:13.401Z,-0.50
2023-12-07T15:49:44.317Z,-0.75
2023-12-07T15:52:13.704Z,-0.87
2023-12-07T15:54:44.762Z,-0.96
2023-12-07T15:57:13.902Z,-1.20
2023-12-07T15:59:44.950Z,-1.35
2023-12-07T16:02:14.251Z,-1.40
2023-12-07T16:04:45.193Z,-1.51
2023-12-07T16:07:14.458Z,-1.66
2023-12-07T16:09:43.795Z,-1.74
2023-12-07T16:12:13.106Z,-1.87
2023-12-07T16:14:42.894Z,-1.77
2023-12-07T16:17:13.677Z,-1.83
2023-12-07T16:19:44.447Z,-1.96
2023-12-07T16:22:13.846Z,-1.99
2023-12-07T16:24:43.042Z,-1.90
2023-12-07T16:27:13.033Z,-1.91
2023-12-07T16:29:43.047Z,-2.02
2023-12-07T16:32:14.159Z,-2.13
2023-12-07T16:34:46.413Z,-2.10
2023-12-07T16:37:15.565Z,-2.12
2023-12-07T16:39:45.968Z,-2.18
2023-12-07T16:42:15.244Z,-2.15
2023-12-07T16:44:45.608Z,-2.12
2023-12-07T16:47:15.256Z,-2.01
2023-12-07T16:49:45.951Z,-1.96
2023-12-07T16:52:15.206Z,-2.14
2023-12-07T16:54:44.606Z,-2.29
2023-12-07T16:57:14.452Z,-2.22
2023-12-07T16:59:43.697Z,-2.12
2023-12-07T17:02:12.812Z,-2.27
2023-12-07T17:04:42.371Z,-2.33
2023-12-07T17:07:13.140Z,-2.19
2023-12-07T17:09:42.706Z,-2.11
2023-12-07T17:12:12.399Z,-2.07
2023-12-07T17:14:43.733Z,-2.30
2023-12-07T17:17:12.868Z,-2.21
2023-12-07T17:19:48.615Z,-2.45
2023-12-07T17:22:21.869Z,-2.52
2023-12-07T17:24:51.089Z,-2.48
2023-12-07T17:27:20.325Z,-2.46
2023-12-07T17:29:49.529Z,-2.54
2023-12-07T17:32:18.904Z,-2.50
2023-12-07T17:34:48.359Z,-2.48
2023-12-07T17:37:17.568Z,-2.67
2023-12-07T17:39:48.453Z,-2.97
2023-12-07T17:42:17.799Z,-3.08
2023-12-07T17:44:47.419Z,-3.11
2023-12-07T17:47:16.716Z,-3.11
2023-12-07T17:49:45.901Z,-3.19
2023-12-07T17:52:15.299Z,-3.21
2023-12-07T17:54:44.535Z,-3.30
2023-12-07T17:57:15.302Z,-3.44
2023-12-07T17:59:44.642Z,-3.64
2023-12-07T18:02:13.933Z,-3.60
2023-12-07T18:04:43.221Z,-3.62
2023-12-07T18:07:12.480Z,-3.55
2023-12-07T18:09:44.072Z,-3.49
2023-12-07T18:12:14.838Z,-3.31
2023-12-07T18:14:44.013Z,-3.27
2023-12-07T18:17:13.540Z,-3.32
2023-12-07T18:19:42.966Z,-3.28
2023-12-07T18:22:12.243Z,-3.54
2023-12-07T18:24:41.663Z,-3.64
2023-12-07T18:27:10.887Z,-3.48
2023-12-07T18:29:41.448Z,-3.50
2023-12-07T18:32:15.224Z,-3.55
2023-12-07T18:34:44.897Z,-3.59
2023-12-07T18:37:14.220Z,-3.57
2023-12-07T18:39:43.323Z,-3.65
2023-12-07T18:42:12.597Z,-3.63
2023-12-07T18:44:45.290Z,-3.81
2023-12-07T18:47:15.382Z,-3.99
2023-12-07T18:49:44.756Z,-4.20
2023-12-07T18:52:14.095Z,-4.23
2023-12-07T18:54:44.838Z,-4.28
2023-12-07T18:57:14.538Z,-4.34
2023-12-07T18:59:45.391Z,-4.23
2023-12-07T19:02:14.630Z,-4.14
2023-12-07T19:04:45.115Z,-4.18
2023-12-07T19:07:14.744Z,-4.24
2023-12-07T19:09:43.840Z,-4.29
2023-12-07T19:12:12.952Z,-4.39
2023-12-07T19:14:42.360Z,-4.56
2023-12-07T19:17:13.481Z,-4.63
2023-12-07T19:19:42.598Z,-4.74
2023-12-07T19:22:12.668Z,-4.28
2023-12-07T19:24:41.888Z,-3.78
2023-12-07T19:27:13.821Z,-3.76
2023-12-07T19:29:44.851Z,-3.76
2023-12-07T19:32:16.342Z,-3.99
2023-12-07T19:34:46.758Z,-4.01
2023-12-07T19:37:16.228Z,-4.13
2023-12-07T19:39:47.791Z,-4.08
2023-12-07T19:42:17.122Z,-4.09
2023-12-07T19:44:47.135Z,-4.28
2023-12-07T19:47:17.585Z,-4.41
2023-12-07T19:49:46.905Z,-4.34
2023-12-07T19:52:16.333Z,-4.43
2023-12-07T19:54:45.543Z,-4.27
2023-12-07T19:57:14.751Z,-4.27
2023-12-07T19:59:44.023Z,-4.38
2023-12-07T20:02:13.358Z,-4.57
2023-12-07T20:04:44.051Z,-4.73
2023-12-07T20:07:13.189Z,-4.49
2023-12-07T20:09:43.573Z,-4.33
2023-12-07T20:12:12.882Z,-4.29
2023-12-07T20:14:42.533Z,-4.43
2023-12-07T20:17:11.718Z,-4.64
2023-12-07T20:19:41.215Z,-4.79
2023-12-07T20:22:11.880Z,-4.93
2023-12-07T20:24:41.161Z,-5.05
2023-12-07T20:27:10.353Z,-4.86
2023-12-07T20:29:39.644Z,-4.92
2023-12-07T20:32:10.676Z,-5.22
2023-12-07T20:34:40.503Z,-5.39
2023-12-07T20:37:12.187Z,-5.37
2023-12-07T20:39:41.720Z,-5.34
2023-12-07T20:42:10.971Z,-5.46
2023-12-07T20:44:40.303Z,-5.45
2023-12-07T20:47:09.552Z,-5.33
2023-12-07T20:49:40.199Z,-5.41
2023-12-07T20:52:12.989Z,-5.21
2023-12-07T20:54:42.144Z,-5.20
2023-12-07T20:57:21.436Z,-5.20
2023-12-07T20:59:52.127Z,-5.24
2023-12-07T21:02:24.261Z,-5.22
2023-12-07T21:04:53.614Z,-5.24
2023-12-07T21:07:25.058Z,-5.26
2023-12-07T21:09:54.691Z,-5.18
2023-12-07T21:12:24.390Z,-5.27
2023-12-07T21:14:54.880Z,-5.27
2023-12-07T21:17:24.562Z,-5.28
2023-12-07T21:19:54.737Z,-5.40
2023-12-07T21:22:26.814Z,-5.46
2023-12-07T21:25:00.352Z,-5.29
2023-12-07T21:27:30.703Z,-5.45
2023-12-07T21:30:00.590Z,-5.53
2023-12-07T21:32:30.257Z,-5.54
2023-12-07T21:34:59.740Z,-5.71
2023-12-07T21:37:31.261Z,-5.62
2023-12-07T21:40:02.106Z,-5.66
2023-12-07T21:42:31.590Z,-5.76
2023-12-07T21:45:01.000Z,-5.89
2023-12-07T21:47:30.699Z,-5.78
2023-12-07T21:50:00.440Z,-5.71
2023-12-07T21:52:32.118Z,-5.75
2023-12-07T21:55:01.728Z,-5.67
2023-12-07T21:57:30.956Z,-5.76
2023-12-07T22:00:00.407Z,-5.65
2023-12-07T22:02:29.577Z,-5.50
2023-12-07T22:04:58.832Z,-5.59
2023-12-07T22:07:28.883Z,-5.78
2023-12-07T22:10:06.614Z,-5.89
2023-12-07T22:12:43.209Z,-5.80
2023-12-07T22:15:14.292Z,-5.80
2023-12-07T22:17:43.618Z,-5.71
2023-12-07T22:20:12.920Z,-5.67
2023-12-07T22:22:42.400Z,-5.94
2023-12-07T22:25:13.119Z,-5.81
2023-12-07T22:27:42.244Z,-5.96
2023-12-07T22:30:13.551Z,-6.07
2023-12-07T22:32:42.811Z,-6.08
2023-12-07T22:35:12.700Z,-6.06
2023-12-07T22:37:42.121Z,-6.03
2023-12-07T22:40:13.735Z,-5.83
2023-12-07T22:42:42.794Z,-5.79
2023-12-07T22:45:12.923Z,-5.85
2023-12-07T22:47:41.259Z,-6.02
2023-12-07T22:50:11.572Z,-5.89
2023-12-07T22:52:40.759Z,-6.03
2023-12-07T22:55:10.441Z,-5.69
2023-12-07T22:57:40.974Z,-5.61
2023-12-07T23:00:19.851Z,-5.49
2023-12-07T23:02:49.651Z,-5.57
2023-12-07T23:05:19.829Z,-5.85
2023-12-07T23:07:49.448Z,-5.89
2023-12-07T23:10:19.026Z,-5.87
2023-12-07T23:12:49.718Z,-6.02
2023-12-07T23:15:18.999Z,-5.99
2023-12-07T23:17:48.321Z,-6.08
2023-12-07T23:20:17.736Z,-5.97
2023-12-07T23:22:46.918Z,-5.99
2023-12-07T23:25:16.214Z,-6.21
2023-12-07T23:27:45.330Z,-6.30
2023-12-07T23:30:16.449Z,-6.34
2023-12-07T23:32:45.734Z,-6.35
2023-12-07T23:35:14.993Z,-6.33
2023-12-07T23:37:44.164Z,-6.44
2023-12-07T23:40:14.844Z,-6.32
2023-12-07T23:42:44.365Z,-6.39
2023-12-07T23:45:15.727Z,-6.17
2023-12-07T23:47:45.023Z,-6.06
2023-12-07T23:50:14.849Z,-6.28
2023-12-07T23:52:44.076Z,-6.37
2023-12-07T23:55:13.233Z,-6.65
2023-12-07T23:57:42.336Z,-6.64
